Kanaskat, Washington
Current Conditions -  °F | °C
As of 12:53 AM on Saturday 22 Nov 2014 (Local Time) from KRNT Reporting Station
Few Clouds Few Clouds  
Wind Chill:   Ceiling: Unl
Heat Index:   Visibility: 10mi
Dew Point:   Wind: 6mph
Humidity: 74%   Direction: NA
Pressure: 29.54"   Gusts: 17mph
Location:  47.3777°N, 121.913°W
Report Text: KRNT 220853Z AUTO VRB05G15KT 10SM FEW100 09/05 A2954 RMK AO2 SLP008 T00940050 51039
Loading
Personal Weather Stations






























Interactive Weather Map New forecast layout! Learn more

10-Day Weather Forecast

Advertisements
Track Severe Weather on mobile